sensor_id;sensor_type;location;lat;lon;timestamp;pressure;altitude;pressure_sealevel;temperature;humidity
55576;BME280;41437;45.478;9.116;2023-02-20T00:03:04;100645.03;;;7.25;100.00
55576;BME280;41437;45.478;9.116;2023-02-20T00:06:08;100634.72;;;7.20;100.00
55576;BME280;41437;45.478;9.116;2023-02-20T00:09:10;100635.13;;;7.17;100.00
55576;BME280;41437;45.478;9.116;2023-02-20T00:12:13;100638.69;;;7.24;100.00
55576;BME280;41437;45.478;9.116;2023-02-20T00:15:16;100638.94;;;7.16;100.00
55576;BME280;41437;45.478;9.116;2023-02-20T00:18:18;100647.59;;;7.13;100.00
55576;BME280;41437;45.478;9.116;2023-02-20T00:21:20;100656.28;;;7.03;100.00
55576;BME280;41437;45.478;9.116;2023-02-20T00:24:22;100660.94;;;7.03;100.00
55576;BME280;41437;45.478;9.116;2023-02-20T00:27:25;100668.78;;;6.93;100.00
55576;BME280;41437;45.478;9.116;2023-02-20T00:30:29;100675.13;;;6.87;100.00
55576;BME280;41437;45.478;9.116;2023-02-20T00:33:36;100671.97;;;6.83;100.00
55576;BME280;41437;45.478;9.116;2023-02-20T00:36:37;100685.03;;;6.81;100.00
55576;BME280;41437;45.478;9.116;2023-02-20T00:39:39;100675.56;;;6.77;100.00
55576;BME280;41437;45.478;9.116;2023-02-20T00:42:47;100682.13;;;6.76;100.00
55576;BME280;41437;45.478;9.116;2023-02-20T00:45:49;100679.19;;;6.71;100.00
55576;BME280;41437;45.478;9.116;2023-02-20T00:48:50;100687.38;;;6.84;100.00
55576;BME280;41437;45.478;9.116;2023-02-20T00:51:52;100682.91;;;6.83;100.00
55576;BME280;41437;45.478;9.116;2023-02-20T00:54:54;100683.56;;;6.85;100.00
55576;BME280;41437;45.478;9.116;2023-02-20T00:57:59;100682.72;;;6.85;100.00
55576;BME280;41437;45.478;9.116;2023-02-20T01:01:01;100672.19;;;6.88;100.00
55576;BME280;41437;45.478;9.116;2023-02-20T01:04:02;100666.69;;;6.88;100.00
55576;BME280;41437;45.478;9.116;2023-02-20T01:07:04;100665.84;;;6.88;100.00
55576;BME280;41437;45.478;9.116;2023-02-20T01:10:07;100664.81;;;6.82;100.00
55576;BME280;41437;45.478;9.116;2023-02-20T01:13:10;100662.47;;;6.86;100.00
55576;BME280;41437;45.478;9.116;2023-02-20T01:16:11;100661.41;;;6.93;100.00
55576;BME280;41437;45.478;9.116;2023-02-20T01:19:13;100654.03;;;6.87;100.00
55576;BME280;41437;45.478;9.116;2023-02-20T01:22:18;100654.28;;;6.79;100.00
55576;BME280;41437;45.478;9.116;2023-02-20T01:25:19;100654.72;;;6.76;100.00
55576;BME280;41437;45.478;9.116;2023-02-20T01:28:22;100654.09;;;6.74;100.00
55576;BME280;41437;45.478;9.116;2023-02-20T01:31:24;100657.66;;;6.81;100.00
55576;BME280;41437;45.478;9.116;2023-02-20T01:34:25;100659.97;;;6.84;100.00
55576;BME280;41437;45.478;9.116;2023-02-20T01:37:27;100659.31;;;6.89;100.00
55576;BME280;41437;45.478;9.116;2023-02-20T01:40:32;100665.41;;;6.97;100.00
55576;BME280;41437;45.478;9.116;2023-02-20T01:43:35;100672.50;;;7.05;100.00
55576;BME280;41437;45.478;9.116;2023-02-20T01:46:47;100666.19;;;7.04;100.00
55576;BME280;41437;45.478;9.116;2023-02-20T01:49:53;100663.28;;;6.99;100.00
55576;BME280;41437;45.478;9.116;2023-02-20T01:53:02;100674.03;;;7.01;100.00
55576;BME280;41437;45.478;9.116;2023-02-20T01:56:07;100664.09;;;7.00;100.00
55576;BME280;41437;45.478;9.116;2023-02-20T01:59:11;100669.63;;;6.93;100.00
55576;BME280;41437;45.478;9.116;2023-02-20T02:02:13;100674.66;;;6.96;100.00
55576;BME280;41437;45.478;9.116;2023-02-20T02:05:16;100682.22;;;7.08;100.00
55576;BME280;41437;45.478;9.116;2023-02-20T02:08:19;100682.44;;;7.06;100.00
55576;BME280;41437;45.478;9.116;2023-02-20T02:11:22;100690.44;;;7.08;100.00
55576;BME280;41437;45.478;9.116;2023-02-20T02:14:26;100678.25;;;6.97;100.00
55576;BME280;41437;45.478;9.116;2023-02-20T02:17:46;100679.53;;;6.94;100.00
55576;BME280;41437;45.478;9.116;2023-02-20T02:21:11;100691.13;;;6.90;100.00
55576;BME280;41437;45.478;9.116;2023-02-20T02:24:35;100677.44;;;6.83;100.00
55576;BME280;41437;45.478;9.116;2023-02-20T02:32:05;100691.53;;;6.93;100.00
55576;BME280;41437;45.478;9.116;2023-02-20T02:38:51;100701.63;;;6.99;100.00
55576;BME280;41437;45.478;9.116;2023-02-20T02:42:04;100705.19;;;7.00;100.00
55576;BME280;41437;45.478;9.116;2023-02-20T02:48:24;100699.53;;;7.01;100.00
55576;BME280;41437;45.478;9.116;2023-02-20T02:58:42;100695.78;;;6.89;100.00
55576;BME280;41437;45.478;9.116;2023-02-20T03:02:02;100694.94;;;6.89;100.00
55576;BME280;41437;45.478;9.116;2023-02-20T03:05:23;100701.06;;;6.84;100.00
55576;BME280;41437;45.478;9.116;2023-02-20T03:08:42;100696.63;;;6.83;100.00
55576;BME280;41437;45.478;9.116;2023-02-20T03:11:45;100702.09;;;6.83;100.00
55576;BME280;41437;45.478;9.116;2023-02-20T03:14:56;100699.56;;;6.88;100.00
55576;BME280;41437;45.478;9.116;2023-02-20T03:18:23;100715.16;;;6.88;100.00
55576;BME280;41437;45.478;9.116;2023-02-20T03:21:27;100712.63;;;6.86;100.00
55576;BME280;41437;45.478;9.116;2023-02-20T03:24:32;100704.81;;;6.90;100.00
55576;BME280;41437;45.478;9.116;2023-02-20T03:27:57;100701.06;;;6.84;100.00
55576;BME280;41437;45.478;9.116;2023-02-20T03:31:03;100709.69;;;6.81;100.00
55576;BME280;41437;45.478;9.116;2023-02-20T03:34:09;100696.22;;;6.73;100.00
55576;BME280;41437;45.478;9.116;2023-02-20T03:37:31;100708.44;;;6.70;100.00
55576;BME280;41437;45.478;9.116;2023-02-20T03:40:53;100712.25;;;6.69;100.00
55576;BME280;41437;45.478;9.116;2023-02-20T03:44:14;100720.28;;;6.71;100.00
55576;BME280;41437;45.478;9.116;2023-02-20T03:47:21;100730.78;;;6.74;100.00
55576;BME280;41437;45.478;9.116;2023-02-20T03:50:24;100727.84;;;6.69;100.00
55576;BME280;41437;45.478;9.116;2023-02-20T03:53:26;100737.97;;;6.75;100.00
55576;BME280;41437;45.478;9.116;2023-02-20T03:56:30;100733.31;;;6.75;100.00
55576;BME280;41437;45.478;9.116;2023-02-20T03:59:36;100742.38;;;6.76;100.00
55576;BME280;41437;45.478;9.116;2023-02-20T04:02:41;100738.16;;;6.73;100.00
55576;BME280;41437;45.478;9.116;2023-02-20T04:05:46;100751.84;;;6.73;100.00
55576;BME280;41437;45.478;9.116;2023-02-20T04:08:53;100755.66;;;6.72;100.00
55576;BME280;41437;45.478;9.116;2023-02-20T04:11:59;100759.66;;;6.70;100.00
55576;BME280;41437;45.478;9.116;2023-02-20T04:15:04;100757.34;;;6.67;100.00
55576;BME280;41437;45.478;9.116;2023-02-20T04:18:10;100757.13;;;6.62;100.00
55576;BME280;41437;45.478;9.116;2023-02-20T04:21:18;100761.53;;;6.69;100.00
55576;BME280;41437;45.478;9.116;2023-02-20T04:24:24;100769.13;;;6.74;100.00
55576;BME280;41437;45.478;9.116;2023-02-20T04:27:29;100775.66;;;6.73;100.00
55576;BME280;41437;45.478;9.116;2023-02-20T04:30:31;100771.88;;;6.67;100.00
55576;BME280;41437;45.478;9.116;2023-02-20T04:33:35;100765.97;;;6.64;100.00
55576;BME280;41437;45.478;9.116;2023-02-20T04:36:37;100771.03;;;6.67;100.00
55576;BME280;41437;45.478;9.116;2023-02-20T04:39:39;100771.47;;;6.64;100.00
55576;BME280;41437;45.478;9.116;2023-02-20T04:42:41;100777.56;;;6.59;100.00
55576;BME280;41437;45.478;9.116;2023-02-20T04:45:42;100789.78;;;6.57;100.00
55576;BME280;41437;45.478;9.116;2023-02-20T04:48:45;100795.69;;;6.60;100.00
55576;BME280;41437;45.478;9.116;2023-02-20T04:51:47;100793.59;;;6.62;100.00
55576;BME280;41437;45.478;9.116;2023-02-20T04:54:48;100795.47;;;6.55;100.00
55576;BME280;41437;45.478;9.116;2023-02-20T04:57:50;100801.56;;;6.57;100.00
55576;BME280;41437;45.478;9.116;2023-02-20T05:00:54;100799.47;;;6.52;100.00
55576;BME280;41437;45.478;9.116;2023-02-20T05:03:58;100801.38;;;6.59;100.00
55576;BME280;41437;45.478;9.116;2023-02-20T05:07:00;100802.84;;;6.54;100.00
55576;BME280;41437;45.478;9.116;2023-02-20T05:10:02;100812.34;;;6.59;100.00
55576;BME280;41437;45.478;9.116;2023-02-20T05:13:03;100819.50;;;6.53;100.00
55576;BME280;41437;45.478;9.116;2023-02-20T05:16:05;100830.22;;;6.54;100.00
55576;BME280;41437;45.478;9.116;2023-02-20T05:19:09;100833.38;;;6.51;100.00
55576;BME280;41437;45.478;9.116;2023-02-20T05:22:14;100832.31;;;6.52;100.00
55576;BME280;41437;45.478;9.116;2023-02-20T05:25:20;100836.97;;;6.59;100.00
55576;BME280;41437;45.478;9.116;2023-02-20T05:28:22;100833.19;;;6.73;100.00
55576;BME280;41437;45.478;9.116;2023-02-20T05:31:23;100840.97;;;6.63;100.00
55576;BME280;41437;45.478;9.116;2023-02-20T05:34:26;100846.47;;;6.63;100.00
55576;BME280;41437;45.478;9.116;2023-02-20T05:37:28;100850.03;;;6.57;100.00
55576;BME280;41437;45.478;9.116;2023-02-20T05:40:29;100855.94;;;6.53;100.00
55576;BME280;41437;45.478;9.116;2023-02-20T05:43:31;100848.75;;;6.52;100.00
55576;BME280;41437;45.478;9.116;2023-02-20T05:46:38;100846.22;;;6.51;100.00
55576;BME280;41437;45.478;9.116;2023-02-20T05:49:41;100852.13;;;6.48;100.00
55576;BME280;41437;45.478;9.116;2023-02-20T05:52:43;100858.25;;;6.50;100.00
55576;BME280;41437;45.478;9.116;2023-02-20T05:55:47;100856.97;;;6.52;100.00
55576;BME280;41437;45.478;9.116;2023-02-20T05:58:49;100856.56;;;6.69;100.00
55576;BME280;41437;45.478;9.116;2023-02-20T06:01:55;100860.56;;;6.73;100.00
55576;BME280;41437;45.478;9.116;2023-02-20T06:04:58;100860.56;;;6.73;100.00
55576;BME280;41437;45.478;9.116;2023-02-20T06:08:00;100862.03;;;6.89;100.00
55576;BME280;41437;45.478;9.116;2023-02-20T06:11:02;100860.56;;;6.93;100.00
55576;BME280;41437;45.478;9.116;2023-02-20T06:14:04;100871.31;;;7.01;100.00
55576;BME280;41437;45.478;9.116;2023-02-20T06:17:06;100870.03;;;7.03;100.00
55576;BME280;41437;45.478;9.116;2023-02-20T06:20:10;100872.78;;;7.03;100.00
55576;BME280;41437;45.478;9.116;2023-02-20T06:23:11;100882.44;;;7.13;100.00
55576;BME280;41437;45.478;9.116;2023-02-20T06:26:13;100887.31;;;7.11;100.00
55576;BME280;41437;45.478;9.116;2023-02-20T06:29:15;100889.00;;;7.12;100.00
55576;BME280;41437;45.478;9.116;2023-02-20T06:32:17;100890.03;;;7.17;100.00
55576;BME280;41437;45.478;9.116;2023-02-20T06:35:20;100903.31;;;7.20;100.00
55576;BME280;41437;45.478;9.116;2023-02-20T06:38:22;100912.59;;;7.33;100.00
55576;BME280;41437;45.478;9.116;2023-02-20T06:41:24;100917.84;;;7.34;100.00
55576;BME280;41437;45.478;9.116;2023-02-20T06:44:25;100915.75;;;7.36;100.00
55576;BME280;41437;45.478;9.116;2023-02-20T06:47:27;100923.34;;;7.41;100.00
55576;BME280;41437;45.478;9.116;2023-02-20T06:50:30;100925.84;;;7.42;100.00
55576;BME280;41437;45.478;9.116;2023-02-20T06:53:33;100935.94;;;7.48;100.00
55576;BME280;41437;45.478;9.116;2023-02-20T06:56:38;100936.19;;;7.47;100.00
55576;BME280;41437;45.478;9.116;2023-02-20T06:59:39;100939.75;;;7.54;100.00
55576;BME280;41437;45.478;9.116;2023-02-20T07:02:43;100943.75;;;7.58;100.00
55576;BME280;41437;45.478;9.116;2023-02-20T07:05:46;100943.28;;;7.74;100.00
55576;BME280;41437;45.478;9.116;2023-02-20T07:08:47;100949.84;;;7.73;100.00
55576;BME280;41437;45.478;9.116;2023-02-20T07:11:51;100942.63;;;7.79;100.00
55576;BME280;41437;45.478;9.116;2023-02-20T07:14:54;100952.72;;;7.92;100.00
55576;BME280;41437;45.478;9.116;2023-02-20T07:17:55;100956.53;;;7.97;100.00
55576;BME280;41437;45.478;9.116;2023-02-20T07:20:59;100974.63;;;10.06;100.00
55576;BME280;41437;45.478;9.116;2023-02-20T07:24:00;100979.19;;;11.21;100.00
55576;BME280;41437;45.478;9.116;2023-02-20T07:27:02;100982.97;;;13.40;97.15
55576;BME280;41437;45.478;9.116;2023-02-20T07:30:04;100987.50;;;13.46;92.45
55576;BME280;41437;45.478;9.116;2023-02-20T07:33:06;100988.59;;;14.23;87.08
55576;BME280;41437;45.478;9.116;2023-02-20T07:36:09;100997.75;;;14.45;83.73
55576;BME280;41437;45.478;9.116;2023-02-20T07:39:12;100990.41;;;14.51;84.70
55576;BME280;41437;45.478;9.116;2023-02-20T07:42:15;100990.09;;;14.74;81.59
55576;BME280;41437;45.478;9.116;2023-02-20T07:45:17;100998.69;;;15.00;77.63
55576;BME280;41437;45.478;9.116;2023-02-20T07:48:18;101004.03;;;14.36;79.34
55576;BME280;41437;45.478;9.116;2023-02-20T07:51:21;101002.47;;;14.45;79.02
55576;BME280;41437;45.478;9.116;2023-02-20T07:54:23;101006.69;;;13.87;82.02
55576;BME280;41437;45.478;9.116;2023-02-20T07:57:26;101001.28;;;14.57;77.28
55576;BME280;41437;45.478;9.116;2023-02-20T08:00:28;101003.84;;;14.20;79.78
55576;BME280;41437;45.478;9.116;2023-02-20T08:03:29;100998.72;;;14.51;78.04
55576;BME280;41437;45.478;9.116;2023-02-20T08:06:32;101000.63;;;13.90;81.38
55576;BME280;41437;45.478;9.116;2023-02-20T08:09:34;101001.53;;;13.11;84.06
55576;BME280;41437;45.478;9.116;2023-02-20T08:12:35;100994.00;;;11.97;91.82
55576;BME280;41437;45.478;9.116;2023-02-20T08:15:38;100991.28;;;11.20;97.61
55576;BME280;41437;45.478;9.116;2023-02-20T08:18:41;100980.50;;;10.47;100.00
55576;BME280;41437;45.478;9.116;2023-02-20T08:21:43;100990.63;;;9.98;100.00
55576;BME280;41437;45.478;9.116;2023-02-20T08:24:45;100989.28;;;9.14;100.00
55576;BME280;41437;45.478;9.116;2023-02-20T08:27:48;100989.09;;;9.09;100.00
55576;BME280;41437;45.478;9.116;2023-02-20T08:30:50;100990.97;;;9.15;100.00
55576;BME280;41437;45.478;9.116;2023-02-20T08:33:51;100997.75;;;9.12;100.00
55576;BME280;41437;45.478;9.116;2023-02-20T08:36:54;100987.03;;;9.04;100.00
55576;BME280;41437;45.478;9.116;2023-02-20T08:39:56;100989.34;;;9.07;100.00
55576;BME280;41437;45.478;9.116;2023-02-20T08:42:57;100987.25;;;9.02;100.00
55576;BME280;41437;45.478;9.116;2023-02-20T08:45:59;100983.97;;;8.87;100.00
55576;BME280;41437;45.478;9.116;2023-02-20T08:49:01;100977.72;;;8.73;100.00
55576;BME280;41437;45.478;9.116;2023-02-20T08:52:04;100982.63;;;8.65;100.00
55576;BME280;41437;45.478;9.116;2023-02-20T08:55:06;100981.38;;;8.61;100.00
55576;BME280;41437;45.478;9.116;2023-02-20T08:58:08;100982.06;;;8.88;100.00
55576;BME280;41437;45.478;9.116;2023-02-20T09:01:09;100979.00;;;9.02;100.00
55576;BME280;41437;45.478;9.116;2023-02-20T09:04:11;100983.88;;;9.00;100.00
55576;BME280;41437;45.478;9.116;2023-02-20T09:07:14;100988.53;;;9.00;100.00
55576;BME280;41437;45.478;9.116;2023-02-20T09:10:17;100987.78;;;8.86;100.00
55576;BME280;41437;45.478;9.116;2023-02-20T09:13:18;100977.91;;;8.78;100.00
55576;BME280;41437;45.478;9.116;2023-02-20T09:16:22;100981.47;;;8.79;100.00
55576;BME280;41437;45.478;9.116;2023-02-20T09:19:24;100974.09;;;8.79;100.00
55576;BME280;41437;45.478;9.116;2023-02-20T09:22:27;100981.94;;;8.76;100.00
55576;BME280;41437;45.478;9.116;2023-02-20T09:25:29;100985.09;;;8.79;100.00
55576;BME280;41437;45.478;9.116;2023-02-20T09:28:30;100984.50;;;9.02;100.00
55576;BME280;41437;45.478;9.116;2023-02-20T09:31:32;100986.47;;;9.20;100.00
55576;BME280;41437;45.478;9.116;2023-02-20T09:34:34;100995.53;;;9.27;100.00
55576;BME280;41437;45.478;9.116;2023-02-20T09:37:37;100990.47;;;9.24;100.00
55576;BME280;41437;45.478;9.116;2023-02-20T09:40:38;100999.59;;;9.43;100.00
55576;BME280;41437;45.478;9.116;2023-02-20T09:43:46;100992.81;;;9.46;100.00
55576;BME280;41437;45.478;9.116;2023-02-20T09:46:50;100988.09;;;9.53;100.00
55576;BME280;41437;45.478;9.116;2023-02-20T09:49:56;100976.09;;;9.47;100.00
55576;BME280;41437;45.478;9.116;2023-02-20T09:53:04;100990.06;;;9.46;100.00
55576;BME280;41437;45.478;9.116;2023-02-20T09:56:12;100990.69;;;9.48;100.00
55576;BME280;41437;45.478;9.116;2023-02-20T09:59:18;100986.22;;;9.28;100.00
55576;BME280;41437;45.478;9.116;2023-02-20T10:02:24;100995.63;;;9.39;100.00
55576;BME280;41437;45.478;9.116;2023-02-20T10:05:28;100996.25;;;9.41;100.00
55576;BME280;41437;45.478;9.116;2023-02-20T10:08:32;100990.47;;;9.49;100.00
55576;BME280;41437;45.478;9.116;2023-02-20T10:11:51;100995.22;;;9.61;100.00
55576;BME280;41437;45.478;9.116;2023-02-20T10:15:13;100995.56;;;9.46;100.00
55576;BME280;41437;45.478;9.116;2023-02-20T10:18:26;100995.91;;;9.74;100.00
55576;BME280;41437;45.478;9.116;2023-02-20T10:21:44;100992.53;;;9.97;100.00
55576;BME280;41437;45.478;9.116;2023-02-20T10:24:59;100989.28;;;10.00;100.00
55576;BME280;41437;45.478;9.116;2023-02-20T10:28:06;100991.06;;;9.95;100.00
55576;BME280;41437;45.478;9.116;2023-02-20T10:31:21;100983.28;;;10.28;100.00
55576;BME280;41437;45.478;9.116;2023-02-20T10:34:29;100996.72;;;10.55;100.00
55576;BME280;41437;45.478;9.116;2023-02-20T10:37:34;100988.31;;;10.80;100.00
55576;BME280;41437;45.478;9.116;2023-02-20T10:40:41;100984.81;;;10.73;100.00
55576;BME280;41437;45.478;9.116;2023-02-20T10:43:49;100975.31;;;10.69;100.00
55576;BME280;41437;45.478;9.116;2023-02-20T10:46:59;100972.13;;;10.83;100.00
55576;BME280;41437;45.478;9.116;2023-02-20T10:50:06;100972.88;;;10.91;100.00
55576;BME280;41437;45.478;9.116;2023-02-20T10:53:18;100974.97;;;11.07;100.00
55576;BME280;41437;45.478;9.116;2023-02-20T10:56:25;100962.75;;;11.15;100.00
55576;BME280;41437;45.478;9.116;2023-02-20T10:59:32;100965.97;;;11.12;100.00
55576;BME280;41437;45.478;9.116;2023-02-20T11:02:41;100964.31;;;11.22;100.00
55576;BME280;41437;45.478;9.116;2023-02-20T11:05:47;100954.97;;;11.35;100.00
55576;BME280;41437;45.478;9.116;2023-02-20T11:08:50;100950.44;;;11.41;100.00
55576;BME280;41437;45.478;9.116;2023-02-20T11:11:54;100952.34;;;11.75;97.87
55576;BME280;41437;45.478;9.116;2023-02-20T11:14:58;100941.75;;;11.84;97.93
55576;BME280;41437;45.478;9.116;2023-02-20T11:18:03;100932.88;;;11.35;96.78
55576;BME280;41437;45.478;9.116;2023-02-20T11:21:32;100927.59;;;11.57;96.92
55576;BME280;41437;45.478;9.116;2023-02-20T11:24:35;100930.97;;;11.59;96.69
55576;BME280;41437;45.478;9.116;2023-02-20T11:27:38;100923.41;;;11.54;98.11
55576;BME280;41437;45.478;9.116;2023-02-20T11:30:41;100921.34;;;11.73;95.62
55576;BME280;41437;45.478;9.116;2023-02-20T11:33:45;100916.09;;;11.72;96.62
55576;BME280;41437;45.478;9.116;2023-02-20T11:36:51;100908.50;;;12.02;97.47
55576;BME280;41437;45.478;9.116;2023-02-20T11:39:55;100908.28;;;12.49;93.46
55576;BME280;41437;45.478;9.116;2023-02-20T11:43:09;100908.25;;;12.61;91.97
55576;BME280;41437;45.478;9.116;2023-02-20T11:46:16;100898.47;;;12.87;92.54
55576;BME280;41437;45.478;9.116;2023-02-20T11:49:25;100889.69;;;13.07;90.57
55576;BME280;41437;45.478;9.116;2023-02-20T11:52:27;100886.94;;;13.24;89.93
55576;BME280;41437;45.478;9.116;2023-02-20T11:55:30;100881.81;;;12.99;89.19
55576;BME280;41437;45.478;9.116;2023-02-20T11:58:34;100878.44;;;13.14;88.92
55576;BME280;41437;45.478;9.116;2023-02-20T12:01:35;100876.00;;;13.17;87.92
55576;BME280;41437;45.478;9.116;2023-02-20T12:04:37;100870.41;;;13.29;89.31
55576;BME280;41437;45.478;9.116;2023-02-20T12:07:41;100859.91;;;13.31;88.67
55576;BME280;41437;45.478;9.116;2023-02-20T12:10:45;100852.19;;;13.50;86.37
55576;BME280;41437;45.478;9.116;2023-02-20T12:13:51;100854.97;;;13.72;85.14
55576;BME280;41437;45.478;9.116;2023-02-20T12:17:04;100844.38;;;13.91;84.96
55576;BME280;41437;45.478;9.116;2023-02-20T12:20:13;100836.63;;;14.15;82.86
55576;BME280;41437;45.478;9.116;2023-02-20T12:23:22;100831.28;;;14.35;82.23
55576;BME280;41437;45.478;9.116;2023-02-20T12:26:39;100831.09;;;14.42;81.88
55576;BME280;41437;45.478;9.116;2023-02-20T12:29:50;100819.34;;;14.56;82.94
55576;BME280;41437;45.478;9.116;2023-02-20T12:33:05;100811.78;;;14.84;80.67
55576;BME280;41437;45.478;9.116;2023-02-20T12:36:17;100814.69;;;14.99;79.13
55576;BME280;41437;45.478;9.116;2023-02-20T12:39:27;100807.59;;;15.19;77.93
55576;BME280;41437;45.478;9.116;2023-02-20T12:42:40;100796.38;;;14.98;77.93
55576;BME280;41437;45.478;9.116;2023-02-20T12:45:48;100800.22;;;14.97;77.73
55576;BME280;41437;45.478;9.116;2023-02-20T12:49:11;100792.47;;;14.35;77.26
55576;BME280;41437;45.478;9.116;2023-02-20T12:52:33;100786.09;;;13.80;81.21
55576;BME280;41437;45.478;9.116;2023-02-20T12:55:45;100777.72;;;13.53;83.62
55576;BME280;41437;45.478;9.116;2023-02-20T12:58:58;100773.09;;;13.37;85.31
55576;BME280;41437;45.478;9.116;2023-02-20T13:02:14;100760.03;;;13.32;85.43
55576;BME280;41437;45.478;9.116;2023-02-20T13:05:20;100757.00;;;13.34;86.07
55576;BME280;41437;45.478;9.116;2023-02-20T13:08:27;100744.75;;;13.30;86.60
55576;BME280;41437;45.478;9.116;2023-02-20T13:11:35;100752.03;;;12.97;86.63
55576;BME280;41437;45.478;9.116;2023-02-20T13:14:54;100743.66;;;12.92;86.63
55576;BME280;41437;45.478;9.116;2023-02-20T13:18:04;100738.41;;;12.40;89.13
55576;BME280;41437;45.478;9.116;2023-02-20T13:21:09;100730.47;;;12.61;91.53
55576;BME280;41437;45.478;9.116;2023-02-20T13:24:35;100733.91;;;12.68;92.06
55576;BME280;41437;45.478;9.116;2023-02-20T13:27:36;100720.88;;;12.85;90.32
55576;BME280;41437;45.478;9.116;2023-02-20T13:30:41;100707.38;;;12.89;89.87
55576;BME280;41437;45.478;9.116;2023-02-20T13:33:48;100714.72;;;13.00;90.61
55576;BME280;41437;45.478;9.116;2023-02-20T13:36:50;100706.31;;;13.12;88.27
55576;BME280;41437;45.478;9.116;2023-02-20T13:39:52;100704.66;;;13.11;88.99
55576;BME280;41437;45.478;9.116;2023-02-20T13:43:18;100697.69;;;13.08;88.93
55576;BME280;41437;45.478;9.116;2023-02-20T13:46:27;100694.38;;;13.28;87.62
55576;BME280;41437;45.478;9.116;2023-02-20T13:49:54;100691.59;;;13.06;88.66
55576;BME280;41437;45.478;9.116;2023-02-20T13:53:00;100690.19;;;12.87;90.75
55576;BME280;41437;45.478;9.116;2023-02-20T13:56:02;100693.41;;;12.78;91.14
55576;BME280;41437;45.478;9.116;2023-02-20T13:59:09;100679.41;;;12.85;89.07
55576;BME280;41437;45.478;9.116;2023-02-20T14:02:16;100688.06;;;12.72;91.63
55576;BME280;41437;45.478;9.116;2023-02-20T14:05:23;100681.00;;;12.81;89.41
55576;BME280;41437;45.478;9.116;2023-02-20T14:08:26;100683.09;;;12.74;91.02
55576;BME280;41437;45.478;9.116;2023-02-20T14:11:31;100679.84;;;12.77;92.30
55576;BME280;41437;45.478;9.116;2023-02-20T14:14:38;100669.88;;;12.76;91.77
55576;BME280;41437;45.478;9.116;2023-02-20T14:17:41;100673.59;;;12.87;91.39
55576;BME280;41437;45.478;9.116;2023-02-20T14:20:44;100665.81;;;12.83;91.28
55576;BME280;41437;45.478;9.116;2023-02-20T14:23:46;100661.97;;;12.85;91.75
55576;BME280;41437;45.478;9.116;2023-02-20T14:26:49;100660.38;;;12.89;91.27
55576;BME280;41437;45.478;9.116;2023-02-20T14:30:06;100655.94;;;12.71;91.12
55576;BME280;41437;45.478;9.116;2023-02-20T14:33:28;100649.53;;;12.65;92.20
55576;BME280;41437;45.478;9.116;2023-02-20T14:36:44;100652.34;;;12.70;91.78
55576;BME280;41437;45.478;9.116;2023-02-20T14:39:55;100644.88;;;12.71;91.40
55576;BME280;41437;45.478;9.116;2023-02-20T14:43:01;100646.28;;;12.90;90.67
55576;BME280;41437;45.478;9.116;2023-02-20T14:46:05;100645.09;;;13.08;89.63
55576;BME280;41437;45.478;9.116;2023-02-20T14:49:08;100648.16;;;13.06;87.56
55576;BME280;41437;45.478;9.116;2023-02-20T14:52:15;100640.63;;;13.02;88.85
55576;BME280;41437;45.478;9.116;2023-02-20T14:55:18;100651.47;;;13.08;89.38
55576;BME280;41437;45.478;9.116;2023-02-20T14:58:21;100641.41;;;12.97;88.95
55576;BME280;41437;45.478;9.116;2023-02-20T15:01:34;100642.91;;;13.10;87.50
55576;BME280;41437;45.478;9.116;2023-02-20T15:04:46;100640.22;;;13.15;88.56
55576;BME280;41437;45.478;9.116;2023-02-20T15:07:50;100632.38;;;13.07;88.24
55576;BME280;41437;45.478;9.116;2023-02-20T15:10:53;100635.16;;;13.07;87.62
55576;BME280;41437;45.478;9.116;2023-02-20T15:13:55;100636.88;;;13.13;88.67
55576;BME280;41437;45.478;9.116;2023-02-20T15:17:08;100633.59;;;12.94;89.17
55576;BME280;41437;45.478;9.116;2023-02-20T15:20:17;100632.88;;;13.04;90.02
55576;BME280;41437;45.478;9.116;2023-02-20T15:23:24;100637.59;;;13.03;89.03
55576;BME280;41437;45.478;9.116;2023-02-20T15:26:29;100635.28;;;12.95;89.68
55576;BME280;41437;45.478;9.116;2023-02-20T15:29:31;100643.19;;;12.87;89.48
55576;BME280;41437;45.478;9.116;2023-02-20T15:32:37;100641.44;;;12.80;89.99
55576;BME280;41437;45.478;9.116;2023-02-20T15:35:42;100643.66;;;12.62;91.66
55576;BME280;41437;45.478;9.116;2023-02-20T15:38:44;100645.13;;;12.47;92.24
55576;BME280;41437;45.478;9.116;2023-02-20T15:41:47;100641.94;;;12.39;93.09
55576;BME280;41437;45.478;9.116;2023-02-20T15:44:49;100639.03;;;12.28;93.75
55576;BME280;41437;45.478;9.116;2023-02-20T15:47:52;100643.97;;;12.26;93.66
55576;BME280;41437;45.478;9.116;2023-02-20T15:50:56;100636.84;;;12.14;94.61
55576;BME280;41437;45.478;9.116;2023-02-20T15:54:00;100641.38;;;12.03;95.33
55576;BME280;41437;45.478;9.116;2023-02-20T15:57:12;100636.84;;;11.97;96.39
55576;BME280;41437;45.478;9.116;2023-02-20T16:00:18;100638.03;;;12.01;95.71
55576;BME280;41437;45.478;9.116;2023-02-20T16:03:21;100630.69;;;11.90;96.24
55576;BME280;41437;45.478;9.116;2023-02-20T16:06:23;100640.97;;;11.94;96.96
55576;BME280;41437;45.478;9.116;2023-02-20T16:09:26;100633.72;;;11.76;97.41
55576;BME280;41437;45.478;9.116;2023-02-20T16:12:27;100635.84;;;11.57;98.57
55576;BME280;41437;45.478;9.116;2023-02-20T16:15:32;100631.81;;;11.48;99.83
55576;BME280;41437;45.478;9.116;2023-02-20T16:18:33;100635.50;;;11.37;100.00
55576;BME280;41437;45.478;9.116;2023-02-20T16:21:35;100630.28;;;11.24;100.00
55576;BME280;41437;45.478;9.116;2023-02-20T16:24:38;100634.31;;;11.33;100.00
55576;BME280;41437;45.478;9.116;2023-02-20T16:27:41;100640.81;;;11.27;100.00
55576;BME280;41437;45.478;9.116;2023-02-20T16:30:44;100637.28;;;11.15;100.00